Terminal Aerodrome Forecast
Issued by NWS

Home | Current Version | Previous Version | Text Only | Print | Product List | Glossary On
Versions: 1 2 3 4 5 6 7 8 9 10 11 12 13 14 15 16 17 18 19 20 21 22 23 24 25 26 27 28 29 30 31 32 33 34 35 36 37 38 39 40 41 42 43 44 45 46 47 48 49 50
000
FTUS43 KLOT 242300
TAFGYY
TAF
KGYY 242335Z 2500/2524 28011KT P6SM BKN010 OVC015
      TEMPO 2500/2501 5SM -RA BR OVC015
     FM250100 28011KT P6SM BKN010 OVC015
      TEMPO 2501/2504 4SM -RADZ BR OVC008
     FM250400 28010G15KT 6SM BR SCT009 OVC013
     FM251300 25013KT P6SM BKN010 OVC015
     FM251800 22014KT P6SM SCT015 BKN200
     FM252100 20013KT P6SM FEW020 BKN200=

USA.gov is the U.S. government's official web portal to all federal, state and local government web resources and services.